M I D A S
Marine Information and Data Acquisition System
Tripno 719 of the Zeeleeuw from 2004-05-18 06:12:13 to 2004-05-18 12:34:22
Back to CruiseResearch ActivitiesStationsMapUnderway DataData graphs

EquipmentUnitsComment
TimeDGPSUTC
LatitudeDGPSDM.mWGS84
LongitudeDGPSDM.mWGS84
HeadingGyrodeg 
SOGDGPSknotsSpeed over ground
COGDGPSdegCourse over ground
DepthEcho soundermeters200 kHz
Missing or incorrect values are displayed as -999
Navigation data collected by the RV Zeeleeuw from 2004-05-18 06:12:13 to 2004-05-18 12:34:22
                                                                                    Next 1000 lines
Time Latitude Longitude Heading SOG COG Depth
2004-05-18 06:12:19 51°13.667 2°55.856 113.5 4.6 291 -999
2004-05-18 06:12:24 51°13.669 2°55.846 112 4.7 290 -999
2004-05-18 06:12:29 51°13.671 2°55.836 110.3 4.6 288 -999
2004-05-18 06:12:34 51°13.673 2°55.827 108.6 4.5 287 -999
2004-05-18 06:12:39 51°13.674 2°55.818 106.8 4.4 285 -999
2004-05-18 06:12:44 51°13.675 2°55.809 105.1 4.1 283 -999
2004-05-18 06:12:49 51°13.676 2°55.8 103.3 4 281 -999
2004-05-18 06:12:54 51°13.677 2°55.791 101.5 3.9 280 -999
2004-05-18 06:12:58 51°13.678 2°55.785 99.6 3.8 279 -999
2004-05-18 06:13:03 51°13.679 2°55.777 97.9 3.5 278 9.8
2004-05-18 06:13:08 51°13.679 2°55.77 96.5 3.2 275 9.8
2004-05-18 06:13:14 51°13.679 2°55.762 95 2.9 275 10.3
2004-05-18 06:13:18 51°13.68 2°55.758 92.9 2.7 274 10.7
2004-05-18 06:13:23 51°13.68 2°55.752 91.2 2.5 273 10.7
2004-05-18 06:13:28 51°13.68 2°55.748 90 2 272 10.8
2004-05-18 06:13:33 51°13.68 2°55.745 88.3 1.6 274 11.4
2004-05-18 06:13:38 51°13.68 2°55.743 85.5 1 281 11.7
2004-05-18 06:13:43 51°13.681 2°55.742 81.2 0.5 294 11.9
2004-05-18 06:13:48 51°13.682 2°55.742 75.5 0.5 15 12
2004-05-18 06:13:53 51°13.682 2°55.743 69.7 0.7 30 12.2
2004-05-18 06:13:58 51°13.684 2°55.744 63.8 1 33 12.1
2004-05-18 06:14:04 51°13.686 2°55.746 57.8 1.2 34 12.2
2004-05-18 06:14:08 51°13.687 2°55.748 51.9 1.6 32 12.1
2004-05-18 06:14:12 51°13.689 2°55.749 45.8 1.8 28 12.1
2004-05-18 06:14:17 51°13.691 2°55.751 39.9 2 24 12.1
2004-05-18 06:14:23 51°13.695 2°55.753 33.8 2.2 19 12.1
2004-05-18 06:14:28 51°13.698 2°55.754 27.6 2.4 13 12
2004-05-18 06:14:33 51°13.702 2°55.755 21.5 2.6 7 12
2004-05-18 06:14:38 51°13.706 2°55.755 15.2 3.1 2 11.9
2004-05-18 06:14:43 51°13.711 2°55.755 8 3.6 354 11.7
2004-05-18 06:14:48 51°13.715 2°55.753 358.8 3.7 346 11.3
2004-05-18 06:14:54 51°13.721 2°55.75 352.5 3.8 341 10.8
2004-05-18 06:14:58 51°13.725 2°55.747 344.9 3.8 336 9.6
2004-05-18 06:15:04 51°13.731 2°55.742 340.9 4 334 8.5
2004-05-18 06:15:08 51°13.735 2°55.739 337.8 4.1 332 8.2
2004-05-18 06:15:13 51°13.74 2°55.734 335.8 4.2 331 7.9
2004-05-18 06:15:18 51°13.745 2°55.729 334.6 4.7 329 7.7
2004-05-18 06:15:22 51°13.75 2°55.725 333.5 4.7 329 7.7
2004-05-18 06:15:28 51°13.757 2°55.718 333 4.9 328 7.7
2004-05-18 06:15:33 51°13.763 2°55.712 332.3 4.9 328 7.6
2004-05-18 06:15:38 51°13.768 2°55.706 331.7 5 327 5.7
2004-05-18 06:15:44 51°13.775 2°55.699 331.2 5 327 7.6
2004-05-18 06:15:48 51°13.78 2°55.694 330.6 5.1 326 7.6
2004-05-18 06:15:53 51°13.786 2°55.687 330 5.1 325 7.3
2004-05-18 06:15:58 51°13.791 2°55.68 329.2 5.1 324 7.4
2004-05-18 06:16:04 51°13.798 2°55.673 328.6 5.1 324 7.6
2004-05-18 06:16:08 51°13.803 2°55.668 328.4 4.9 324 8.3
2004-05-18 06:16:13 51°13.808 2°55.661 328.4 4.8 325 8.3
2004-05-18 06:16:18 51°13.813 2°55.656 329.2 4.7 326 8.5
2004-05-18 06:16:22 51°13.817 2°55.651 330.2 4.5 327 8.4
2004-05-18 06:16:28 51°13.824 2°55.645 331.5 4.4 328 8.5
2004-05-18 06:16:32 51°13.828 2°55.641 332.9 4.3 329 8.4
2004-05-18 06:16:38 51°13.834 2°55.636 334.4 4.2 331 8.4
2004-05-18 06:16:42 51°13.838 2°55.632 336.3 4.1 332 8.4
2004-05-18 06:16:48 51°13.844 2°55.628 338.4 4 335 8.4
2004-05-18 06:16:53 51°13.849 2°55.624 340.7 3.9 337 8.4
2004-05-18 06:16:57 51°13.853 2°55.622 342.6 3.8 338 8.3
2004-05-18 06:17:03 51°13.859 2°55.618 344.2 3.7 339 8.2
2004-05-18 06:17:09 51°13.864 2°55.615 345.4 3.7 340 8.2
2004-05-18 06:17:13 51°13.868 2°55.613 346.3 3.6 340 8.3
2004-05-18 06:17:18 51°13.873 2°55.61 346.9 3.6 341 8.1
2004-05-18 06:17:24 51°13.878 2°55.607 347.4 3.6 341 8.2
2004-05-18 06:17:28 51°13.882 2°55.605 347.7 3.5 341 8.1
2004-05-18 06:17:33 51°13.886 2°55.602 348 3.5 341 8.2
2004-05-18 06:17:38 51°13.891 2°55.6 348.2 3.5 342 8.2
2004-05-18 06:17:43 51°13.896 2°55.597 348.4 3.6 342 8.2
2004-05-18 06:17:45 51°13.898 2°55.596 348.5 3.7 342 8.2
2004-05-18 06:17:53 51°13.905 2°55.592 348.5 3.8 342 8.3
2004-05-18 06:17:58 51°13.91 2°55.589 348.3 3.8 342 8.3
2004-05-18 06:18:02 51°13.914 2°55.587 348 3.8 341 8.3
2004-05-18 06:18:08 51°13.92 2°55.584 347.6 3.9 341 8.3
2004-05-18 06:18:13 51°13.926 2°55.581 346.9 4 341 8.5
2004-05-18 06:18:18 51°13.931 2°55.578 346.4 4 341 8.6
2004-05-18 06:18:22 51°13.935 2°55.576 345.9 4.1 340 8.9
2004-05-18 06:18:29 51°13.943 2°55.571 345.5 4.1 340 8.9
2004-05-18 06:18:33 51°13.947 2°55.569 345.1 4.2 340 9
2004-05-18 06:18:38 51°13.953 2°55.566 345 4.2 341 9
2004-05-18 06:18:44 51°13.959 2°55.562 344.9 4.2 341 9.4
2004-05-18 06:18:48 51°13.964 2°55.56 344.9 4.2 341 9.3
2004-05-18 06:18:53 51°13.969 2°55.557 345.1 4.3 342 9.5
2004-05-18 06:18:58 51°13.975 2°55.554 345.1 4.3 341 9.7
2004-05-18 06:19:04 51°13.982 2°55.55 344.7 4.3 341 9.9
2004-05-18 06:19:08 51°13.986 2°55.547 344 4.3 339 9.9
2004-05-18 06:19:12 51°13.991 2°55.545 343 4.3 338 10.1
2004-05-18 06:19:17 51°13.996 2°55.541 341.5 4.4 336 10.1
2004-05-18 06:19:23 51°14.003 2°55.536 339.8 4.5 335 10.1
2004-05-18 06:19:28 51°14.009 2°55.53 338.3 4.6 330 10.1
2004-05-18 06:19:33 51°14.014 2°55.525 336.1 4.7 330 10
2004-05-18 06:19:38 51°14.02 2°55.52 335 4.8 328 10
2004-05-18 06:19:44 51°14.027 2°55.513 334.5 4.8 328 9.9
2004-05-18 06:19:45 51°14.028 2°55.512 334.5 4.9 328 9.8
2004-05-18 06:19:53 51°14.037 2°55.503 335.2 5 330 9.8
2004-05-18 06:19:58 51°14.044 2°55.497 336.1 5.3 330 9.8
2004-05-18 06:20:02 51°14.049 2°55.492 336.8 5.6 331 9.8
2004-05-18 06:20:08 51°14.058 2°55.484 337.3 6.1 330 9.8
2004-05-18 06:20:13 51°14.066 2°55.477 337.4 6.6 330 9.8
2004-05-18 06:20:18 51°14.075 2°55.469 336.6 7.1 329 9.8
2004-05-18 06:20:22 51°14.082 2°55.462 337 7.9 333 9.8
2004-05-18 06:20:28 51°14.095 2°55.453 339.3 8.6 334 9.6
2004-05-18 06:20:33 51°14.107 2°55.444 340.3 9 334 9.7
2004-05-18 06:20:38 51°14.118 2°55.434 339.1 9.4 332 9.6
2004-05-18 06:20:44 51°14.133 2°55.421 336.8 9.7 330 9.5
2004-05-18 06:20:48 51°14.143 2°55.412 335.6 10.2 329 9.5
2004-05-18 06:20:53 51°14.155 2°55.401 335.3 10.4 330 9.6
2004-05-18 06:20:58 51°14.168 2°55.389 335.3 10.6 329 9.6
2004-05-18 06:21:04 51°14.183 2°55.374 335.3 10.7 329 9.6
2004-05-18 06:21:08 51°14.193 2°55.362 334.2 10.9 325 9.6
2004-05-18 06:21:13 51°14.205 2°55.348 331.3 11 324 9.6
2004-05-18 06:21:18 51°14.217 2°55.334 329.8 11 323 9.6
2004-05-18 06:21:23 51°14.229 2°55.318 328.4 11.1 322 9.6
2004-05-18 06:21:28 51°14.241 2°55.303 327.6 11.1 321 9.5
2004-05-18 06:21:34 51°14.256 2°55.284 327 11.1 320 9.7
2004-05-18 06:21:38 51°14.265 2°55.271 326.1 11.1 319 9.6
2004-05-18 06:21:43 51°14.276 2°55.253 323.7 11.2 317 9.5
2004-05-18 06:21:45 51°14.28 2°55.246 321.8 11.3 312 9.6
2004-05-18 06:21:53 51°14.297 2°55.216 318.6 11.4 310 9.2
2004-05-18 06:21:58 51°14.307 2°55.196 316.2 11.5 309 9.4
2004-05-18 06:22:02 51°14.314 2°55.18 314.2 11.5 307 9.5
2004-05-18 06:22:08 51°14.326 2°55.154 312.5 11.8 305 9.6
2004-05-18 06:22:13 51°14.335 2°55.132 310.6 12 303 9.2
2004-05-18 06:22:18 51°14.345 2°55.11 310.2 12.2 305 9.5
2004-05-18 06:22:22 51°14.352 2°55.091 309.1 12.3 303 9.1
2004-05-18 06:22:29 51°14.364 2°55.058 307.7 12.5 300 9.4
2004-05-18 06:22:33 51°14.371 2°55.039 305.6 12.6 299 9.4
2004-05-18 06:22:37 51°14.378 2°55.019 304.8 12.7 300 9.2
2004-05-18 06:22:42 51°14.386 2°54.994 304.8 12.9 299 9.1
2004-05-18 06:22:48 51°14.397 2°54.964 305.2 13 299 9
2004-05-18 06:22:53 51°14.405 2°54.938 304.9 13.1 296 9.1
2004-05-18 06:22:58 51°14.412 2°54.912 302.7 13.1 294 9.1
2004-05-18 06:23:08 51°14.421 2°54.855 292 13.4 279 9.2
2004-05-18 06:23:16 51°14.424 2°54.807 287.4 13.4 276 9.1
2004-05-18 06:23:20 51°14.424 2°54.783 281.6 13.6 269 9.1
2004-05-18 06:23:24 51°14.423 2°54.759 276.4 13.6 267 9
2004-05-18 06:23:30 51°14.421 2°54.723 272.7 13.7 265 9
2004-05-18 06:23:35 51°14.419 2°54.693 271.2 13.8 264 8.9
2004-05-18 06:23:40 51°14.417 2°54.662 270.3 13.9 263 9.2
2004-05-18 06:23:45 51°14.414 2°54.632 269.9 13.9 263 8.9
2004-05-18 06:23:49 51°14.411 2°54.607 268 14 260 9.1
2004-05-18 06:23:55 51°14.407 2°54.571 266.1 14 258 8.9
2004-05-18 06:24:00 51°14.402 2°54.54 264.3 14.1 257 8.8
2004-05-18 06:24:05 51°14.398 2°54.51 263.4 14.1 257 8.7
2004-05-18 06:24:10 51°14.394 2°54.48 263.3 14.1 257 8.3
2004-05-18 06:24:15 51°14.39 2°54.449 263.5 14.1 258 8.2
2004-05-18 06:24:20 51°14.386 2°54.419 264.1 14 259 8
2004-05-18 06:24:25 51°14.382 2°54.389 265.1 13.9 260 7.9
2004-05-18 06:24:30 51°14.379 2°54.358 266.3 13.9 260 7.9
2004-05-18 06:24:33 51°14.377 2°54.34 267.1 13.9 261 5.7
2004-05-18 06:24:40 51°14.373 2°54.297 267.8 13.9 260 7.8
2004-05-18 06:24:45 51°14.369 2°54.267 268 13.9 259 7.7
2004-05-18 06:24:50 51°14.364 2°54.237 264.9 14 255 7.7
2004-05-18 06:24:56 51°14.356 2°54.203 261.5 14 250 7.7
2004-05-18 06:25:01 51°14.348 2°54.174 256.1 14.1 246 7.7
2004-05-18 06:25:04 51°14.342 2°54.157 252.7 14.2 243 5.7
2004-05-18 06:25:10 51°14.331 2°54.124 249.3 14.2 242 7.7
2004-05-18 06:25:14 51°14.323 2°54.103 246.6 14.1 240 7.7
2004-05-18 06:25:21 51°14.309 2°54.066 244.9 14.1 239 7.7
2004-05-18 06:25:24 51°14.303 2°54.05 243.7 14.1 238 7.7
2004-05-18 06:25:30 51°14.29 2°54.017 243.1 14.2 239 7.7
2004-05-18 06:25:34 51°14.282 2°53.996 243.3 14.3 239 5.7
2004-05-18 06:25:40 51°14.27 2°53.963 243.9 14.3 240 5.7
2004-05-18 06:25:45 51°14.26 2°53.935 244.6 14.3 240 5.7
2004-05-18 06:25:48 51°14.255 2°53.919 245.2 14.4 241 7.7
2004-05-18 06:25:54 51°14.243 2°53.885 245.7 14.3 241 7.6
2004-05-18 06:26:01 51°14.23 2°53.846 246.4 14.3 242 7.7
2004-05-18 06:26:05 51°14.223 2°53.824 247 14.3 242 7.7
2004-05-18 06:26:10 51°14.213 2°53.796 247.1 14.3 241 7.7
2004-05-18 06:26:15 51°14.203 2°53.768 246.8 14.3 241 7.8
2004-05-18 06:26:20 51°14.193 2°53.741 246.3 14.4 240 7.7
2004-05-18 06:26:25 51°14.183 2°53.713 245.6 14.4 240 7.7
2004-05-18 06:26:30 51°14.173 2°53.686 245 14.5 239 7.8
2004-05-18 06:26:36 51°14.161 2°53.653 244.5 14.5 239 7.8
2004-05-18 06:26:40 51°14.152 2°53.631 243.8 14.5 238 5.8
2004-05-18 06:26:45 51°14.142 2°53.604 243.4 14.5 238 7.8
2004-05-18 06:26:50 51°14.131 2°53.577 242.9 14.5 238 7.9
2004-05-18 06:26:56 51°14.118 2°53.544 242.7 14.5 238 8
2004-05-18 06:27:00 51°14.11 2°53.522 243.3 14.6 239 7.9
2004-05-18 06:27:05 51°14.1 2°53.493 244 14.6 241 7.9
2004-05-18 06:27:10 51°14.091 2°53.465 246.3 14.6 242 7.9
2004-05-18 06:27:15 51°14.082 2°53.436 248.9 14.6 246 8
2004-05-18 06:27:20 51°14.074 2°53.406 251.1 14.5 247 8
2004-05-18 06:27:25 51°14.067 2°53.376 252.4 14.5 248 8
2004-05-18 06:27:28 51°14.063 2°53.358 254.2 14.5 249 8
2004-05-18 06:27:36 51°14.051 2°53.31 255.4 14.5 250 8.1
2004-05-18 06:27:39 51°14.047 2°53.292 256.2 14.5 250 8.2
2004-05-18 06:27:44 51°14.04 2°53.262 256.6 14.5 250 8.2
2004-05-18 06:27:49 51°14.033 2°53.232 256.3 14.6 249 8.2
2004-05-18 06:27:54 51°14.026 2°53.202 255.4 14.6 248 8.3
2004-05-18 06:28:00 51°14.016 2°53.167 253.8 14.6 244 8.3
2004-05-18 06:28:05 51°14.006 2°53.138 251.1 14.6 243 8.3
2004-05-18 06:28:10 51°13.996 2°53.11 248.4 14.6 241 8.4
2004-05-18 06:28:15 51°13.986 2°53.082 246.4 14.7 240 8.5
2004-05-18 06:28:20 51°13.976 2°53.054 245.3 14.7 239 8.5
2004-05-18 06:28:26 51°13.964 2°53.02 244.8 14.7 240 8.5
2004-05-18 06:28:29 51°13.958 2°53.003 244.6 14.7 240 8.6
2004-05-18 06:28:34 51°13.948 2°52.975 245.4 14.7 241 8.6
2004-05-18 06:28:40 51°13.936 2°52.94 246.4 14.8 243 8.6
2004-05-18 06:28:45 51°13.928 2°52.911 248.2 14.8 245 8.6
2004-05-18 06:28:48 51°13.923 2°52.893 249.8 14.8 245 8.7
2004-05-18 06:28:56 51°13.909 2°52.845 251.3 14.8 246 8.7
2004-05-18 06:29:00 51°13.903 2°52.821 252.2 14.7 246 8.8
2004-05-18 06:29:05 51°13.894 2°52.792 252.3 14.8 246 8.8
2004-05-18 06:29:10 51°13.886 2°52.762 252.3 14.8 246 8.8
2004-05-18 06:29:16 51°13.876 2°52.726 252.1 14.8 246 8.8
2004-05-18 06:29:21 51°13.867 2°52.697 251.1 14.8 244 8.9
2004-05-18 06:29:25 51°13.859 2°52.673 249.9 14.8 243 8.8
2004-05-18 06:29:30 51°13.85 2°52.644 248.7 14.8 243 8.8
2004-05-18 06:29:36 51°13.838 2°52.61 248.1 14.9 242 8.8
2004-05-18 06:29:40 51°13.83 2°52.587 247.5 14.9 242 8.9
2004-05-18 06:29:45 51°13.82 2°52.557 247.3 14.9 242 8.9
2004-05-18 06:29:48 51°13.815 2°52.54 247.2 14.9 242 8.9
2004-05-18 06:29:56 51°13.799 2°52.493 247.5 14.9 242 8.9
2004-05-18 06:30:00 51°13.792 2°52.47 248.5 14.9 244 8.9
2004-05-18 06:30:05 51°13.783 2°52.44 249.4 14.9 244 8.9
2004-05-18 06:30:10 51°13.774 2°52.41 250.3 15 245 9
2004-05-18 06:30:16 51°13.764 2°52.374 251 14.9 246 9
2004-05-18 06:30:21 51°13.755 2°52.344 251.2 14.9 244 9
2004-05-18 06:30:25 51°13.748 2°52.321 250.7 15 243 9
2004-05-18 06:30:30 51°13.737 2°52.292 249 15 241 9
2004-05-18 06:30:36 51°13.725 2°52.258 246.6 15 240 9.1
2004-05-18 06:30:41 51°13.714 2°52.23 245.1 15 238 9.1
2004-05-18 06:30:45 51°13.705 2°52.207 243.7 15 238 9.1
2004-05-18 06:30:48 51°13.698 2°52.19 243 15 238 9.1
2004-05-18 06:30:56 51°13.68 2°52.146 242.2 15 237 9.1
2004-05-18 06:31:00 51°13.671 2°52.124 241.8 15 237 9.1
2004-05-18 06:31:05 51°13.66 2°52.095 241.7 15 238 9.1
2004-05-18 06:31:10 51°13.649 2°52.067 242.4 15 238 9.1
2004-05-18 06:31:16 51°13.636 2°52.033 243 15 239 9.1
2004-05-18 06:31:21 51°13.626 2°52.005 244 15 239 9.1
2004-05-18 06:31:25 51°13.617 2°51.981 244.6 15 241 9.1
2004-05-18 06:31:30 51°13.607 2°51.953 245.3 15 240 9.1
2004-05-18 06:31:34 51°13.599 2°51.93 245.8 15 241 9.1
2004-05-18 06:31:41 51°13.585 2°51.889 246 15 241 9.1
2004-05-18 06:31:45 51°13.576 2°51.866 246.1 15 240 9.1
2004-05-18 06:31:50 51°13.566 2°51.838 245.4 15 240 9.1
2004-05-18 06:31:56 51°13.553 2°51.804 244.6 15 239 9.1
2004-05-18 06:32:01 51°13.542 2°51.775 243.8 15 238 9.1
2004-05-18 06:32:05 51°13.533 2°51.753 243.3 15 238 9.1
2004-05-18 06:32:10 51°13.522 2°51.725 243.1 15 238 9.1
2004-05-18 06:32:14 51°13.514 2°51.702 243.1 15 238 9.1
2004-05-18 06:32:20 51°13.501 2°51.668 243.3 15 239 9.1
2004-05-18 06:32:25 51°13.49 2°51.64 243.6 15 239 9.2
2004-05-18 06:32:30 51°13.479 2°51.611 243.9 15 239 9.3
2004-05-18 06:32:36 51°13.467 2°51.577 244.3 15 239 9.3
2004-05-18 06:32:40 51°13.458 2°51.554 244.5 15 239 9.3
2004-05-18 06:32:45 51°13.448 2°51.525 244.7 15 240 9.3
2004-05-18 06:32:48 51°13.441 2°51.508 244.8 15.1 240 9.3
2004-05-18 06:32:56 51°13.425 2°51.462 245.1 15 240 9.3
2004-05-18 06:33:00 51°13.416 2°51.44 245.2 15 239 9.4
2004-05-18 06:33:05 51°13.405 2°51.411 244.4 15.1 239 9.4
2004-05-18 06:33:10 51°13.394 2°51.383 243.7 15 238 9.4
2004-05-18 06:33:16 51°13.381 2°51.349 243.1 15 238 9.4
2004-05-18 06:33:21 51°13.369 2°51.321 242.7 15 237 9.4
2004-05-18 06:33:25 51°13.361 2°51.299 242.4 15 238 9.3
2004-05-18 06:33:30 51°13.349 2°51.271 242.4 15 237 9.3
2004-05-18 06:33:34 51°13.34 2°51.248 242.3 15.1 238 9.3
2004-05-18 06:33:41 51°13.325 2°51.208 242.9 15 239 9.3
2004-05-18 06:33:45 51°13.317 2°51.186 243.6 15 239 9.4
2004-05-18 06:33:50 51°13.306 2°51.157 244.1 15.1 240 9.4
2004-05-18 06:33:54 51°13.298 2°51.134 245 15.1 240 9.4
2004-05-18 06:34:01 51°13.283 2°51.094 245.2 15 240 9.5
2004-05-18 06:34:05 51°13.275 2°51.071 245.3 15 240 9.5
2004-05-18 06:34:10 51°13.264 2°51.042 245.1 15 240 9.5
2004-05-18 06:34:14 51°13.255 2°51.02 244.7 15 239 9.4
2004-05-18 06:34:20 51°13.242 2°50.986 243.8 15 238 9.5
2004-05-18 06:34:25 51°13.231 2°50.958 243 15 238 9.5
2004-05-18 06:34:30 51°13.22 2°50.93 242.9 15 237 9.5
2004-05-18 06:34:36 51°13.206 2°50.896 242.3 15 237 9.5
2004-05-18 06:34:41 51°13.195 2°50.868 241.9 15.1 237 9.5
2004-05-18 06:34:45 51°13.185 2°50.846 241.9 15.1 237 9.5
2004-05-18 06:34:48 51°13.179 2°50.829 242.2 15.1 238 9.5
2004-05-18 06:34:56 51°13.161 2°50.784 242.4 15.2 238 9.5
2004-05-18 06:35:00 51°13.152 2°50.761 242.8 15.2 239 9.5
2004-05-18 06:35:05 51°13.141 2°50.732 243.7 15.2 239 9.5
2004-05-18 06:35:10 51°13.131 2°50.703 244.4 15.2 240 9.6
2004-05-18 06:35:16 51°13.118 2°50.669 244.6 15.2 239 9.6
2004-05-18 06:35:21 51°13.107 2°50.64 244.8 15.2 240 9.6
2004-05-18 06:35:25 51°13.098 2°50.616 244.8 15.3 239 9.6
2004-05-18 06:35:30 51°13.088 2°50.587 244.7 15.3 239 9.6
2004-05-18 06:35:34 51°13.079 2°50.564 244.1 15.3 238 9.6
2004-05-18 06:35:40 51°13.065 2°50.53 243.7 15.3 239 9.6
2004-05-18 06:35:50 51°13.043 2°50.472 243.3 15.4 239 9.6
2004-05-18 06:35:55 51°13.032 2°50.442 243.5 15.4 239 9.6
2004-05-18 06:36:00 51°13.021 2°50.413 244 15.4 240 9.6
2004-05-18 06:36:05 51°13.011 2°50.383 244.8 15.4 241 9.6
2004-05-18 06:36:10 51°13 2°50.354 245.3 15.4 241 9.7
2004-05-18 06:36:14 51°12.992 2°50.33 245.5 15.4 241 9.7
2004-05-18 06:36:20 51°12.98 2°50.294 246 15.4 241 9.6
2004-05-18 06:36:24 51°12.971 2°50.27 246 15.4 241 9.7
2004-05-18 06:36:30 51°12.959 2°50.235 245.8 15.4 240 9.7
2004-05-18 06:36:35 51°12.948 2°50.205 245.3 15.4 240 9.7
2004-05-18 06:36:41 51°12.935 2°50.17 244.6 15.4 239 9.7
2004-05-18 06:36:45 51°12.926 2°50.147 243.8 15.5 239 9.7
2004-05-18 06:36:50 51°12.915 2°50.117 243.8 15.4 239 9.7
2004-05-18 06:36:56 51°12.902 2°50.082 243.6 15.4 239 9.7
2004-05-18 06:37:01 51°12.891 2°50.053 243.8 15.4 239 9.8
2004-05-18 06:37:05 51°12.882 2°50.029 244.3 15.4 240 9.8
2004-05-18 06:37:08 51°12.876 2°50.012 244.8 15.4 240 9.7
2004-05-18 06:37:13 51°12.866 2°49.982 245.3 15.4 241 9.7
2004-05-18 06:37:21 51°12.849 2°49.934 245.3 15.4 241 9.8
2004-05-18 06:37:25 51°12.841 2°49.911 245.8 15.4 241 9.8
2004-05-18 06:37:30 51°12.83 2°49.881 245.7 15.4 241 9.8
2004-05-18 06:37:36 51°12.818 2°49.846 245.7 15.4 241 9.8
2004-05-18 06:37:41 51°12.807 2°49.816 245.3 15.4 240 9.8
2004-05-18 06:37:44 51°12.801 2°49.799 245 15.4 239 9.8
2004-05-18 06:37:50 51°12.787 2°49.764 244.2 15.4 239 9.8
2004-05-18 06:37:55 51°12.776 2°49.734 244.1 15.3 239 9.8
2004-05-18 06:38:00 51°12.765 2°49.705 243.7 15.4 239 9.8
2004-05-18 06:38:05 51°12.755 2°49.676 243.5 15.4 239 9.8
2004-05-18 06:38:10 51°12.744 2°49.647 244.1 15.3 240 9.8
2004-05-18 06:38:16 51°12.731 2°49.611 244.4 15.4 240 9.9
2004-05-18 06:38:20 51°12.723 2°49.588 244.8 15.4 240 9.9
2004-05-18 06:38:25 51°12.712 2°49.558 245.1 15.3 240 9.9
2004-05-18 06:38:28 51°12.706 2°49.541 245.2 15.3 240 9.9
2004-05-18 06:38:36 51°12.689 2°49.494 244.5 15.4 240 9.9
2004-05-18 06:38:41 51°12.678 2°49.465 244.4 15.3 240 9.9
2004-05-18 06:38:45 51°12.669 2°49.441 244.4 15.3 239 9.9
2004-05-18 06:38:50 51°12.658 2°49.413 243.8 15.3 239 9.9
2004-05-18 06:38:56 51°12.645 2°49.378 243.7 15.3 239 9.9
2004-05-18 06:39:00 51°12.636 2°49.354 243.7 15.3 240 9.9
2004-05-18 06:39:05 51°12.626 2°49.325 243.8 15.3 239 9.9
2004-05-18 06:39:10 51°12.615 2°49.296 244.2 15.3 240 9.9
2004-05-18 06:39:14 51°12.607 2°49.273 244.6 15.3 240 9.9
2004-05-18 06:39:21 51°12.592 2°49.232 244.9 15.2 240 10
2004-05-18 06:39:25 51°12.584 2°49.208 245.1 15.3 240 9.9
2004-05-18 06:39:30 51°12.573 2°49.179 245.2 15.3 240 10
2004-05-18 06:39:36 51°12.561 2°49.144 245.2 15.3 240 10
2004-05-18 06:39:41 51°12.55 2°49.115 244.5 15.2 239 10
2004-05-18 06:39:44 51°12.543 2°49.098 243.7 15.3 239 9.9
2004-05-18 06:39:49 51°12.532 2°49.069 243.3 15.3 239 10
2004-05-18 06:39:55 51°12.519 2°49.034 243.3 15.3 239 10
2004-05-18 06:40:00 51°12.508 2°49.005 243.4 15.3 240 10
2004-05-18 06:40:05 51°12.498 2°48.976 244.3 15.3 240 9.9
2004-05-18 06:40:10 51°12.487 2°48.947 244.4 15.3 240 9.9
2004-05-18 06:40:16 51°12.474 2°48.912 244.5 15.3 240 9.9
2004-05-18 06:40:20 51°12.466 2°48.888 244.5 15.3 240 9.9
2004-05-18 06:40:24 51°12.457 2°48.865 244.5 15.3 240 9.9
2004-05-18 06:40:29 51°12.446 2°48.836 244.4 15.3 240 9.9
2004-05-18 06:40:34 51°12.435 2°48.807 244.1 15.3 239 9.9
2004-05-18 06:40:41 51°12.42 2°48.766 243.6 15.3 239 10
2004-05-18 06:40:45 51°12.412 2°48.743 243.7 15.3 239 9.9
2004-05-18 06:40:50 51°12.401 2°48.713 244 15.4 240 10
2004-05-18 06:40:56 51°12.388 2°48.678 244.5 15.3 240 10
2004-05-18 06:41:00 51°12.38 2°48.655 244.5 15.4 240 10
2004-05-18 06:41:05 51°12.369 2°48.625 244.5 15.3 240 10
2004-05-18 06:41:10 51°12.358 2°48.596 244.5 15.3 240 10
2004-05-18 06:41:16 51°12.345 2°48.561 244.5 15.4 239 10
2004-05-18 06:41:20 51°12.337 2°48.538 244.2 15.4 240 10
2004-05-18 06:41:25 51°12.326 2°48.509 244 15.3 239 10
2004-05-18 06:41:30 51°12.315 2°48.479 243.8 15.4 239 10
2004-05-18 06:41:36 51°12.302 2°48.444 243.7 15.4 239 10
2004-05-18 06:41:41 51°12.291 2°48.415 243.6 15.4 240 10
2004-05-18 06:41:46 51°12.281 2°48.385 244 15.4 241 10
2004-05-18 06:41:50 51°12.273 2°48.361 245.3 15.4 242 10
2004-05-18 06:41:55 51°12.263 2°48.331 246.8 15.4 243 10
2004-05-18 06:42:00 51°12.254 2°48.3 248.2 15.4 244 9.9
2004-05-18 06:42:05 51°12.245 2°48.269 249.1 15.4 245 10.1
2004-05-18 06:42:10 51°12.236 2°48.239 250 15.4 245 10
2004-05-18 06:42:16 51°12.225 2°48.202 250.1 15.4 245 10.1
2004-05-18 06:42:21 51°12.215 2°48.171 250 15.4 244 10
2004-05-18 06:42:25 51°12.208 2°48.147 249.7 15.4 244 10.1
2004-05-18 06:42:28 51°12.202 2°48.129 248.9 15.4 243 10.1
2004-05-18 06:42:36 51°12.187 2°48.08 248.3 15.4 244 10.1
2004-05-18 06:42:41 51°12.177 2°48.049 248.2 15.4 243 10.2
2004-05-18 06:42:45 51°12.169 2°48.025 248.1 15.5 243 10.2
2004-05-18 06:42:50 51°12.159 2°47.994 248.2 15.5 243 10.2
2004-05-18 06:42:56 51°12.148 2°47.958 248.4 15.5 244 10.2
2004-05-18 06:43:00 51°12.141 2°47.933 248.8 15.5 244 10.2
2004-05-18 06:43:05 51°12.131 2°47.902 248.9 15.5 244 10.2
2004-05-18 06:43:10 51°12.122 2°47.872 249 15.4 244 10.2
2004-05-18 06:43:14 51°12.114 2°47.847 248.7 15.5 244 10.2
2004-05-18 06:43:21 51°12.1 2°47.804 248.6 15.5 243 10.2
2004-05-18 06:43:25 51°12.093 2°47.78 248.2 15.5 243 10.2
2004-05-18 06:43:30 51°12.083 2°47.749 248.2 15.5 243 10.2
2004-05-18 06:43:36 51°12.071 2°47.713 248.2 15.5 243 10.2
2004-05-18 06:43:40 51°12.063 2°47.688 248.2 15.5 244 10.2
2004-05-18 06:43:44 51°12.056 2°47.664 248.6 15.5 244 10.2
2004-05-18 06:43:49 51°12.046 2°47.633 248.7 15.5 244 10.2
2004-05-18 06:43:55 51°12.035 2°47.596 248.7 15.5 244 10.2
2004-05-18 06:44:00 51°12.025 2°47.565 248.6 15.5 244 10.2
2004-05-18 06:44:05 51°12.016 2°47.535 248.4 15.5 243 10.3
2004-05-18 06:44:10 51°12.006 2°47.504 248.5 15.5 244 10.3
2004-05-18 06:44:15 51°11.996 2°47.474 248.2 15.5 243 10.2
2004-05-18 06:44:21 51°11.985 2°47.437 248.1 15.5 243 10.3
2004-05-18 06:44:24 51°11.979 2°47.418 248.2 15.5 244 10.3
2004-05-18 06:44:30 51°11.967 2°47.382 248.2 15.5 244 10.3
2004-05-18 06:44:36 51°11.956 2°47.345 248.6 15.5 244 10.3
2004-05-18 06:44:40 51°11.949 2°47.32 248.8 15.5 244 10.3
2004-05-18 06:44:45 51°11.939 2°47.289 248.8 15.5 244 10.3
2004-05-18 06:44:50 51°11.929 2°47.259 248.6 15.5 243 10.2
2004-05-18 06:44:56 51°11.918 2°47.222 248.2 15.5 243 10.3
2004-05-18 06:45:00 51°11.91 2°47.198 248.2 15.5 243 10.2
2004-05-18 06:45:04 51°11.902 2°47.174 247.9 15.5 243 10.2
2004-05-18 06:45:10 51°11.891 2°47.137 247.8 15.5 243 10.2
2004-05-18 06:45:16 51°11.879 2°47.1 247.7 15.5 243 10.2
2004-05-18 06:45:20 51°11.872 2°47.076 248.2 15.5 244 10.2
2004-05-18 06:45:25 51°11.862 2°47.045 248.6 15.5 244 10.2
2004-05-18 06:45:30 51°11.853 2°47.014 248.7 15.5 244 10.2
2004-05-18 06:45:36 51°11.841 2°46.977 248.7 15.5 243 10.2
2004-05-18 06:45:39 51°11.835 2°46.959 248.4 15.5 243 10.3
2004-05-18 06:45:45 51°11.823 2°46.923 248.4 15.5 243 10.2
2004-05-18 06:45:50 51°11.813 2°46.893 248.2 15.5 243 10.2
2004-05-18 06:45:56 51°11.802 2°46.856 248.2 15.5 243 10.2
2004-05-18 06:46:00 51°11.794 2°46.831 248.2 15.5 244 10.3
2004-05-18 06:46:05 51°11.785 2°46.8 248.7 15.5 244 10.3
2004-05-18 06:46:09 51°11.777 2°46.776 248.9 15.5 244 10.2
2004-05-18 06:46:15 51°11.766 2°46.739 249.2 15.5 244 10.3
2004-05-18 06:46:21 51°11.755 2°46.701 249.5 15.5 245 10.3
2004-05-18 06:46:25 51°11.748 2°46.677 249.5 15.5 244 10.4
2004-05-18 06:46:30 51°11.738 2°46.646 249.4 15.5 244 10.3
2004-05-18 06:46:34 51°11.731 2°46.622 249 15.5 244 10.3
2004-05-18 06:46:41 51°11.717 2°46.578 248.5 15.5 243 10.3
2004-05-18 06:46:45 51°11.709 2°46.554 247.9 15.5 243 10.3
2004-05-18 06:46:50 51°11.7 2°46.524 247.6 15.5 243 10.4
2004-05-18 06:46:55 51°11.69 2°46.493 247.7 15.5 243 10.4
2004-05-18 06:47:00 51°11.68 2°46.462 247.9 15.5 244 10.4
2004-05-18 06:47:05 51°11.671 2°46.431 248.9 15.5 246 10.4
2004-05-18 06:47:10 51°11.663 2°46.4 250.4 15.5 246 10.3
2004-05-18 06:47:14 51°11.656 2°46.374 251.8 15.5 247 10.3
2004-05-18 06:47:21 51°11.645 2°46.33 252.8 15.4 248 10.4
2004-05-18 06:47:24 51°11.641 2°46.311 253.6 15.5 248 10.3
2004-05-18 06:47:29 51°11.633 2°46.279 254 15.5 249 10.4
2004-05-18 06:47:33 51°11.627 2°46.254 254.4 15.5 249 10.4
2004-05-18 06:47:40 51°11.616 2°46.209 254.2 15.5 249 10.4
2004-05-18 06:47:45 51°11.608 2°46.177 254.1 15.5 248 10.4
2004-05-18 06:47:50 51°11.6 2°46.145 253.9 15.5 248 10.4
2004-05-18 06:47:56 51°11.59 2°46.108 253.4 15.5 247 10.4
2004-05-18 06:48:01 51°11.581 2°46.076 252.6 15.5 247 10.4
2004-05-18 06:48:05 51°11.574 2°46.051 252 15.5 247 10.4
2004-05-18 06:48:10 51°11.566 2°46.02 251.8 15.5 247 10.3
2004-05-18 06:48:15 51°11.557 2°45.989 251.7 15.5 247 10.4
2004-05-18 06:48:20 51°11.549 2°45.958 251.8 15.5 247 10.3
2004-05-18 06:48:24 51°11.542 2°45.932 251.9 15.5 247 10.3
2004-05-18 06:48:28 51°11.535 2°45.907 252.3 15.5 247 10.4
2004-05-18 06:48:36 51°11.522 2°45.857 252.5 15.4 248 10.3
2004-05-18 06:48:41 51°11.514 2°45.825 252.5 15.4 247 10.3
2004-05-18 06:48:45 51°11.507 2°45.8 252.5 15.5 247 10.3
2004-05-18 06:48:48 51°11.502 2°45.781 252.5 15.5 247 10.3
2004-05-18 06:48:54 51°11.492 2°45.744 252.5 15.5 247 10.3
2004-05-18 06:49:00 51°11.482 2°45.706 252.1 15.4 247 10.3
2004-05-18 06:49:05 51°11.474 2°45.675 251.9 15.4 247 10.3
2004-05-18 06:49:10 51°11.465 2°45.643 251.8 15.5 247 10.3
2004-05-18 06:49:15 51°11.457 2°45.612 251.8 15.5 247 10.3
2004-05-18 06:49:21 51°11.447 2°45.574 252.1 15.4 247 10.3
2004-05-18 06:49:25 51°11.44 2°45.549 252.2 15.5 247 10.3
2004-05-18 06:49:30 51°11.432 2°45.518 252.2 15.5 247 10.3
2004-05-18 06:49:36 51°11.421 2°45.48 252 15.4 247 10.3
2004-05-18 06:49:40 51°11.415 2°45.455 251.8 15.4 247 10.3
2004-05-18 06:49:45 51°11.406 2°45.424 251.7 15.4 247 10.3
2004-05-18 06:49:50 51°11.398 2°45.393 251.8 15.5 247 10.2
2004-05-18 06:49:54 51°11.391 2°45.367 252.2 15.5 247 10.2
2004-05-18 06:50:00 51°11.382 2°45.33 252.6 15.4 247 10.2
2004-05-18 06:50:05 51°11.373 2°45.298 252.5 15.4 247 10.2
2004-05-18 06:50:10 51°11.365 2°45.267 252.4 15.4 247 10.2
2004-05-18 06:50:15 51°11.357 2°45.236 251.9 15.4 247 10.2
2004-05-18 06:50:21 51°11.346 2°45.198 251.9 15.5 247 10.2
2004-05-18 06:50:26 51°11.338 2°45.167 251.9 15.5 248 10.2
2004-05-18 06:50:30 51°11.331 2°45.141 252.3 15.4 247 10.2
2004-05-18 06:50:34 51°11.325 2°45.116 252.3 15.4 247 10.2
2004-05-18 06:50:40 51°11.315 2°45.079 252 15.4 247 10.2
2004-05-18 06:50:45 51°11.307 2°45.047 251.8 15.4 247 10.2
2004-05-18 06:50:50 51°11.298 2°45.016 252.1 15.4 247 10.1
2004-05-18 06:50:55 51°11.29 2°44.984 252.5 15.5 248 10.2
2004-05-18 06:51:00 51°11.282 2°44.953 252.6 15.4 247 10.2
2004-05-18 06:51:05 51°11.274 2°44.922 252.5 15.4 247 10.1
2004-05-18 06:51:10 51°11.265 2°44.89 252.1 15.4 247 10.2
2004-05-18 06:51:15 51°11.257 2°44.859 252.1 15.4 247 10.2
2004-05-18 06:51:20 51°11.249 2°44.827 251.8 15.4 247 10.1
2004-05-18 06:51:25 51°11.24 2°44.796 251.7 15.4 247 10.1
2004-05-18 06:51:30 51°11.232 2°44.765 251.7 15.4 247 10.1
2004-05-18 06:51:36 51°11.222 2°44.727 251.9 15.4 248 10.1
2004-05-18 06:51:37 51°11.22 2°44.721 252.4 15.4 247 10.1
2004-05-18 06:51:45 51°11.207 2°44.67 252.2 15.4 247 10
2004-05-18 06:51:50 51°11.199 2°44.639 252.1 15.5 247 10
2004-05-18 06:51:54 51°11.192 2°44.614 252.1 15.5 248 10.1
2004-05-18 06:52:01 51°11.181 2°44.57 252.3 15.4 248 10
2004-05-18 06:52:04 51°11.176 2°44.551 252.5 15.5 248 10
2004-05-18 06:52:09 51°11.168 2°44.519 252.7 15.4 248 10
2004-05-18 06:52:15 51°11.158 2°44.481 253.1 15.4 248 10
2004-05-18 06:52:21 51°11.148 2°44.443 253 15.4 248 10
2004-05-18 06:52:24 51°11.143 2°44.424 252.6 15.4 247 10
2004-05-18 06:52:29 51°11.135 2°44.393 252.1 15.4 248 10
2004-05-18 06:52:36 51°11.124 2°44.349 252.1 15.4 247 9.9
2004-05-18 06:52:41 51°11.116 2°44.317 252.9 15.4 250 9.9
2004-05-18 06:52:45 51°11.111 2°44.291 254.7 15.5 251 9.9
2004-05-18 06:52:50 51°11.105 2°44.258 256.8 15.4 253 9.9
2004-05-18 06:52:55 51°11.099 2°44.226 258.3 15.4 253 10
2004-05-18 06:53:01 51°11.092 2°44.187 259.2 15.4 254 10
2004-05-18 06:53:05 51°11.087 2°44.16 260 15.4 255 10
2004-05-18 06:53:09 51°11.083 2°44.134 260.4 15.4 255 10.1
2004-05-18 06:53:16 51°11.075 2°44.088 260.6 15.5 255 10.1
2004-05-18 06:53:20 51°11.071 2°44.061 261.3 15.4 257 10.1
2004-05-18 06:53:25 51°11.066 2°44.028 262.5 15.4 257 10.1
2004-05-18 06:53:30 51°11.061 2°43.995 262.8 15.4 257 10.2
2004-05-18 06:53:35 51°11.057 2°43.962 263 15.5 257 10.1
2004-05-18 06:53:40 51°11.052 2°43.928 263.1 15.5 257 10.2
2004-05-18 06:53:46 51°11.046 2°43.889 263.1 15.4 256 10.2
2004-05-18 06:53:50 51°11.041 2°43.862 262 15.5 254 10.2
2004-05-18 06:53:55 51°11.035 2°43.83 260.7 15.5 254 10.2
2004-05-18 06:54:01 51°11.028 2°43.79 259.8 15.5 253 10.2
2004-05-18 06:54:04 51°11.024 2°43.771 258.7 15.5 253 10.3
2004-05-18 06:54:09 51°11.017 2°43.738 258.2 15.5 253 10.2
2004-05-18 06:54:14 51°11.011 2°43.706 257.8 15.5 252 10.3
2004-05-18 06:54:21 51°11.002 2°43.66 257.8 15.5 253 10.3
2004-05-18 06:54:25 51°10.997 2°43.634 258.2 15.5 253 10.2
2004-05-18 06:54:30 51°10.991 2°43.601 258.5 15.5 253 10.3
2004-05-18 06:54:36 51°10.983 2°43.562 259 15.5 253 10.3
2004-05-18 06:54:39 51°10.98 2°43.542 259.1 15.5 253 10.3
2004-05-18 06:54:45 51°10.972 2°43.503 258.9 15.5 253 10.2
2004-05-18 06:54:50 51°10.965 2°43.47 258.3 15.5 252 10.3
2004-05-18 06:54:56 51°10.958 2°43.431 258 15.5 253 10.3
2004-05-18 06:55:00 51°10.952 2°43.405 257.7 15.5 252 10.3
2004-05-18 06:55:06 51°10.944 2°43.366 257.6 15.5 252 10.4
2004-05-18 06:55:10 51°10.939 2°43.34 257.6 15.5 253 10.3
2004-05-18 06:55:14 51°10.934 2°43.314 257.7 15.5 253 10.4
2004-05-18 06:55:21 51°10.925 2°43.268 258.3 15.5 253 10.4
2004-05-18 06:55:26 51°10.919 2°43.235 258.4 15.5 253 10.3
2004-05-18 06:55:30 51°10.914 2°43.209 258.8 15.5 253 10.4
2004-05-18 06:55:36 51°10.907 2°43.169 258.9 15.5 253 10.4
2004-05-18 06:55:40 51°10.902 2°43.143 258.5 15.5 252 10.4
2004-05-18 06:55:45 51°10.895 2°43.11 258.1 15.6 253 10.3
2004-05-18 06:55:50 51°10.889 2°43.078 257.7 15.6 252 10.4
2004-05-18 06:55:56 51°10.881 2°43.038 257.7 15.5 253 10.4
2004-05-18 06:56:01 51°10.875 2°43.006 258 15.5 253 10.4
2004-05-18 06:56:05 51°10.87 2°42.98 258.3 15.5 253 10.4
2004-05-18 06:56:10 51°10.863 2°42.947 258.4 15.5 253 10.4
2004-05-18 06:56:16 51°10.856 2°42.908 258.4 15.5 253 10.4
2004-05-18 06:56:20 51°10.851 2°42.881 258.4 15.6 253 10.5
2004-05-18 06:56:24 51°10.846 2°42.855 258.2 15.6 253 10.4
2004-05-18 06:56:29 51°10.839 2°42.822 258.1 15.6 253 10.4
2004-05-18 06:56:34 51°10.833 2°42.789 258 15.5 253 10.4
2004-05-18 06:56:41 51°10.824 2°42.744 258 15.5 253 10.4
2004-05-18 06:56:45 51°10.819 2°42.717 257.8 15.5 253 10.4
2004-05-18 06:56:48 51°10.815 2°42.698 258.1 15.5 253 10.5
2004-05-18 06:56:53 51°10.809 2°42.665 258.4 15.5 254 10.4
2004-05-18 06:57:01 51°10.799 2°42.612 258.8 15.6 254 10.4
2004-05-18 06:57:05 51°10.794 2°42.586 259 15.5 254 10.4
2004-05-18 06:57:09 51°10.79 2°42.56 259 15.5 254 10.4
2004-05-18 06:57:15 51°10.782 2°42.52 259 15.5 254 10.5
2004-05-18 06:57:21 51°10.775 2°42.481 258.8 15.5 253 10.5
2004-05-18 06:57:26 51°10.768 2°42.448 258.3 15.5 253 10.5
2004-05-18 06:57:30 51°10.764 2°42.422 258.1 15.5 253 10.4
2004-05-18 06:57:34 51°10.758 2°42.396 257.9 15.6 253 10.5
2004-05-18 06:57:41 51°10.749 2°42.35 257.7 15.5 253 10.5
2004-05-18 06:57:45 51°10.744 2°42.323 258 15.5 253 10.5
2004-05-18 06:57:50 51°10.739 2°42.291 258.3 15.5 254 10.5
2004-05-18 06:57:56 51°10.731 2°42.251 258.4 15.5 253 10.5
2004-05-18 06:58:00 51°10.726 2°42.225 258.4 15.5 253 10.5
2004-05-18 06:58:05 51°10.72 2°42.192 258.3 15.5 253 10.5
2004-05-18 06:58:08 51°10.716 2°42.173 258 15.5 253 10.5
2004-05-18 06:58:16 51°10.706 2°42.12 257.8 15.5 253 10.5
2004-05-18 06:58:21 51°10.7 2°42.087 258 15.5 253 10.5
2004-05-18 06:58:24 51°10.696 2°42.068 258.1 15.5 253 10.5
2004-05-18 06:58:30 51°10.689 2°42.028 258.2 15.5 253 10.5
2004-05-18 06:58:36 51°10.681 2°41.989 258.2 15.5 253 10.5
2004-05-18 06:58:40 51°10.676 2°41.963 258 15.5 253 10.6
2004-05-18 06:58:44 51°10.672 2°41.936 258.1 15.5 253 10.6
2004-05-18 06:58:50 51°10.664 2°41.897 258.1 15.5 253 10.6
2004-05-18 06:58:56 51°10.657 2°41.858 258.3 15.5 254 10.6
2004-05-18 06:58:59 51°10.653 2°41.838 258.6 15.5 253 10.6
2004-05-18 06:59:04 51°10.647 2°41.805 258.6 15.5 253 10.6
2004-05-18 06:59:10 51°10.64 2°41.766 258.4 15.5 253 10.6
2004-05-18 06:59:15 51°10.634 2°41.733 258.3 15.4 253 10.6
2004-05-18 06:59:21 51°10.626 2°41.694 257.8 15.5 253 10.6
2004-05-18 06:59:26 51°10.62 2°41.662 257.6 15.5 253 10.6
2004-05-18 06:59:28 51°10.617 2°41.649 257.6 15.4 253 10.6
2004-05-18 06:59:34 51°10.61 2°41.61 257.6 15.4 253 10.6
2004-05-18 06:59:40 51°10.603 2°41.57 257.8 15.5 254 10.6
2004-05-18 06:59:45 51°10.597 2°41.538 258.2 15.5 254 10.6
2004-05-18 06:59:50 51°10.591 2°41.505 258.5 15.5 254 10.7
2004-05-18 06:59:56 51°10.584 2°41.466 258.7 15.5 254 10.7
2004-05-18 07:00:00 51°10.579 2°41.439 258.9 15.5 254 10.7
2004-05-18 07:00:06 51°10.572 2°41.4 259.1 15.5 254 10.7
2004-05-18 07:00:11 51°10.566 2°41.367 259 15.4 254 10.7
2004-05-18 07:00:15 51°10.561 2°41.341 258.8 15.4 254 10.7
2004-05-18 07:00:21 51°10.554 2°41.302 258.2 15.4 253 10.7
2004-05-18 07:00:24 51°10.55 2°41.283 257.9 15.4 253 10.8
2004-05-18 07:00:30 51°10.542 2°41.244 257.6 15.4 253 10.8
2004-05-18 07:00:35 51°10.536 2°41.211 257.6 15.4 253 10.8
2004-05-18 07:00:40 51°10.53 2°41.178 257.6 15.5 254 10.8
2004-05-18 07:00:45 51°10.524 2°41.146 258.2 15.4 254 10.8
2004-05-18 07:00:50 51°10.518 2°41.113 258.7 15.4 254 10.8
2004-05-18 07:00:56 51°10.511 2°41.074 258.8 15.4 254 10.8
2004-05-18 07:01:00 51°10.506 2°41.048 258.6 15.4 254 10.9
2004-05-18 07:01:06 51°10.499 2°41.008 258.3 15.5 253 10.9
2004-05-18 07:01:10 51°10.494 2°40.982 258.1 15.5 254 10.9
2004-05-18 07:01:16 51°10.487 2°40.943 258.3 15.4 254 10.8
2004-05-18 07:01:19 51°10.483 2°40.923 258.3 15.4 254 10.9
2004-05-18 07:01:25 51°10.476 2°40.884 258.2 15.4 253 10.9
2004-05-18 07:01:29 51°10.471 2°40.858 258 15.5 253 10.9
2004-05-18 07:01:35 51°10.464 2°40.819 257.9 15.4 253 10.9
2004-05-18 07:01:39 51°10.459 2°40.793 258.1 15.4 254 10.9
2004-05-18 07:01:45 51°10.452 2°40.754 258.3 15.4 253 10.9
2004-05-18 07:01:49 51°10.447 2°40.728 258 15.4 254 11
2004-05-18 07:01:56 51°10.438 2°40.682 258 15.4 254 11
2004-05-18 07:01:59 51°10.434 2°40.662 258 15.4 254 11
2004-05-18 07:02:05 51°10.428 2°40.623 258.3 15.4 254 11.1
2004-05-18 07:02:09 51°10.423 2°40.597 258.8 15.4 254 11.1
2004-05-18 07:02:15 51°10.416 2°40.558 259 15.4 255 11.1
2004-05-18 07:02:19 51°10.411 2°40.531 259.1 15.4 254 11.1
2004-05-18 07:02:25 51°10.404 2°40.492 258.9 15.4 254 11.1
2004-05-18 07:02:29 51°10.399 2°40.466 258.3 15.4 253 11.2
2004-05-18 07:02:36 51°10.391 2°40.421 258.1 15.4 253 11.1
2004-05-18 07:02:39 51°10.387 2°40.401 257.6 15.4 253 11.2
2004-05-18 07:02:45 51°10.38 2°40.362 257.6 15.4 253 11.2
2004-05-18 07:02:50 51°10.374 2°40.33 257.5 15.4 254 11.2
2004-05-18 07:02:56 51°10.367 2°40.291 257.9 15.4 253 11.2
2004-05-18 07:03:00 51°10.362 2°40.265 258.3 15.4 254 11.3
2004-05-18 07:03:05 51°10.356 2°40.232 258.5 15.4 254 11.3
2004-05-18 07:03:10 51°10.35 2°40.2 258.6 15.3 254 11.4
2004-05-18 07:03:16 51°10.343 2°40.161 258.4 15.3 254 11.4
2004-05-18 07:03:20 51°10.338 2°40.135 258.1 15.3 253 11.4
2004-05-18 07:03:26 51°10.331 2°40.096 258 15.3 254 11.5
2004-05-18 07:03:30 51°10.326 2°40.07 258 15.3 254 11.6
2004-05-18 07:03:35 51°10.32 2°40.038 258.2 15.3 254 11.6
2004-05-18 07:03:40 51°10.314 2°40.006 258.5 15.2 254 11.6
2004-05-18 07:03:45 51°10.308 2°39.973 258.5 15.2 254 11.7
2004-05-18 07:03:48 51°10.305 2°39.954 258.7 15.2 254 11.7
2004-05-18 07:03:55 51°10.296 2°39.909 258.7 15.2 254 11.8
2004-05-18 07:03:59 51°10.292 2°39.883 258.4 15.3 253 11.9
2004-05-18 07:04:04 51°10.285 2°39.851 258.1 15.2 253 11.9
2004-05-18 07:04:10 51°10.278 2°39.812 258 15.2 254 11.9
2004-05-18 07:04:15 51°10.272 2°39.78 258.2 15.2 253 12
2004-05-18 07:04:20 51°10.266 2°39.748 258.5 15.2 254 12
2004-05-18 07:04:25 51°10.261 2°39.716 258.5 15.2 254 12
2004-05-18 07:04:30 51°10.255 2°39.684 258.4 15.2 253 12.1
2004-05-18 07:04:36 51°10.248 2°39.645 258.1 15.2 254 12.2
2004-05-18 07:04:39 51°10.244 2°39.626 258.2 15.2 253 12.2
2004-05-18 07:04:45 51°10.237 2°39.587 258.2 15.2 254 12.3
2004-05-18 07:04:50 51°10.231 2°39.555 258.3 15.2 254 12.5
2004-05-18 07:04:56 51°10.224 2°39.516 258.3 15.2 253 12.5
2004-05-18 07:05:00 51°10.219 2°39.491 258.2 15.2 253 12.5
2004-05-18 07:05:04 51°10.214 2°39.465 258.1 15.2 253 12.6
2004-05-18 07:05:10 51°10.206 2°39.427 257.5 15.2 251 12.7
2004-05-18 07:05:15 51°10.199 2°39.395 256.2 15.2 251 12.7
2004-05-18 07:05:20 51°10.192 2°39.363 255.3 15.2 250 12.8
2004-05-18 07:05:25 51°10.185 2°39.332 254.7 15.2 250 12.8
2004-05-18 07:05:30 51°10.178 2°39.3 254.4 15.2 249 12.9
2004-05-18 07:05:35 51°10.171 2°39.269 253.9 15.2 250 12.9
2004-05-18 07:05:39 51°10.165 2°39.244 253.8 15.2 250 13
2004-05-18 07:05:45 51°10.156 2°39.206 254 15.2 250 13
2004-05-18 07:05:50 51°10.149 2°39.175 254.1 15.2 250 13
2004-05-18 07:05:56 51°10.14 2°39.137 254.1 15.2 250 13.1
2004-05-18 07:06:01 51°10.133 2°39.106 254.3 15.2 250 13.1
2004-05-18 07:06:06 51°10.126 2°39.074 254.1 15.2 250 13.1
2004-05-18 07:06:10 51°10.12 2°39.049 254 15.2 250 13.2
2004-05-18 07:06:16 51°10.111 2°39.011 253.7 15.2 249 13.2
2004-05-18 07:06:20 51°10.105 2°38.986 253.5 15.2 249 13.2
2004-05-18 07:06:24 51°10.099 2°38.961 253.3 15.2 250 13.2
2004-05-18 07:06:31 51°10.089 2°38.917 253.5 15.2 250 13.3
2004-05-18 07:06:35 51°10.083 2°38.892 253.8 15.2 250 13.4
2004-05-18 07:06:41 51°10.074 2°38.854 254 15.2 250 13.4
2004-05-18 07:06:45 51°10.069 2°38.829 254.4 15.2 250 13.5
2004-05-18 07:06:48 51°10.065 2°38.81 254.5 15.2 250 13.5
2004-05-18 07:06:54 51°10.056 2°38.772 254 15.2 250 13.5
2004-05-18 07:07:00 51°10.047 2°38.734 253.9 15.2 250 13.6
2004-05-18 07:07:05 51°10.04 2°38.703 253.7 15.2 250 13.6
2004-05-18 07:07:10 51°10.032 2°38.671 253.8 15.2 250 13.6
2004-05-18 07:07:13 51°10.028 2°38.652 254 15.3 250 13.6
2004-05-18 07:07:20 51°10.018 2°38.608 254.5 15.2 250 13.6
2004-05-18 07:07:24 51°10.013 2°38.582 254.5 15.3 251 13.8
2004-05-18 07:07:30 51°10.004 2°38.544 254.7 15.3 250 13.8
2004-05-18 07:07:35 51°9.997 2°38.512 254.6 15.3 250 13.9
2004-05-18 07:07:41 51°9.989 2°38.474 254.3 15.3 250 14
2004-05-18 07:07:44 51°9.984 2°38.455 254.3 15.3 250 13.8
2004-05-18 07:07:50 51°9.975 2°38.417 254 15.3 250 13.9
2004-05-18 07:07:55 51°9.968 2°38.385 253.8 15.3 250 14
2004-05-18 07:08:00 51°9.961 2°38.354 254 15.3 250 14
2004-05-18 07:08:05 51°9.954 2°38.322 254.3 15.3 251 14.2
2004-05-18 07:08:10 51°9.947 2°38.29 254.7 15.3 251 14.1
2004-05-18 07:08:16 51°9.939 2°38.252 254.7 15.3 250 14.2
2004-05-18 07:08:20 51°9.933 2°38.226 254.5 15.3 250 14.3
2004-05-18 07:08:26 51°9.924 2°38.188 254.2 15.3 250 14.4
2004-05-18 07:08:30 51°9.919 2°38.162 254.1 15.4 251 14.4
2004-05-18 07:08:35 51°9.912 2°38.13 254.8 15.3 252 14.5
2004-05-18 07:08:39 51°9.907 2°38.105 255.6 15.3 252 14.6
2004-05-18 07:08:45 51°9.899 2°38.066 256.2 15.3 252 14.6
2004-05-18 07:08:49 51°9.894 2°38.04 256.3 15.4 252 14.6
2004-05-18 07:08:56 51°9.885 2°37.995 256.4 15.3 252 14.8
2004-05-18 07:09:06 51°9.871 2°37.931 256.3 15.4 252 15
2004-05-18 07:09:10 51°9.866 2°37.905 256.3 15.3 252 15.1
2004-05-18 07:09:16 51°9.859 2°37.866 256.3 15.3 252 14.9
2004-05-18 07:09:18 51°9.856 2°37.853 256.4 15.3 252 15
2004-05-18 07:09:26 51°9.846 2°37.802 256.4 15.3 252 14.4
2004-05-18 07:09:31 51°9.839 2°37.77 256.1 15.3 252 14.9
2004-05-18 07:09:36 51°9.832 2°37.738 256.1 15.3 251 15
2004-05-18 07:09:41 51°9.825 2°37.706 255.8 15.3 252 15.1
2004-05-18 07:09:46 51°9.819 2°37.673 255.7 15.4 252 15.1
2004-05-18 07:09:50 51°9.814 2°37.648 256 15.4 252 15.1
2004-05-18 07:09:56 51°9.806 2°37.609 256.4 15.3 252 15.1
2004-05-18 07:10:01 51°9.8 2°37.577 256.4 15.4 252 15.1
2004-05-18 07:10:05 51°9.794 2°37.551 256.5 15.4 252 15.1
2004-05-18 07:10:12 51°9.785 2°37.506 256.5 15.3 252 15.1
2004-05-18 07:10:16 51°9.78 2°37.48 256.3 15.3 252 15
2004-05-18 07:10:19 51°9.776 2°37.461 256.2 15.4 252 15
2004-05-18 07:10:26 51°9.766 2°37.416 256 15.4 251 14.9
2004-05-18 07:10:32 51°9.759 2°37.377 255.9 15.3 252 15
2004-05-18 07:10:36 51°9.753 2°37.351 256 15.4 252 14.9
2004-05-18 07:10:41 51°9.747 2°37.319 256.5 15.3 252 14.9
2004-05-18 07:10:46 51°9.74 2°37.287 256.6 15.4 252 15
2004-05-18 07:10:52 51°9.732 2°37.248 256.3 15.4 252 15
2004-05-18 07:10:56 51°9.727 2°37.223 256.2 15.4 252 15
2004-05-18 07:11:01 51°9.72 2°37.19 256 15.4 252 15
2004-05-18 07:11:06 51°9.713 2°37.158 256.1 15.4 252 14.9
2004-05-18 07:11:12 51°9.706 2°37.119 256.2 15.4 252 14.9
2004-05-18 07:11:16 51°9.701 2°37.094 256.7 15.4 252 14.9
2004-05-18 07:11:21 51°9.694 2°37.061 256.7 15.4 253 14.9
2004-05-18 07:11:24 51°9.69 2°37.042 256.5 15.4 252 14.8
2004-05-18 07:11:32 51°9.679 2°36.99 256.2 15.4 252 15
2004-05-18 07:11:34 51°9.677 2°36.977 256.2 15.4 252 14.8
2004-05-18 07:11:41 51°9.668 2°36.932 256.3 15.4 253 14.8
2004-05-18 07:11:46 51°9.661 2°36.9 256.7 15.4 252 14.8
2004-05-18 07:11:50 51°9.656 2°36.874 256.5 15.4 252 14.9
2004-05-18 07:11:56 51°9.648 2°36.835 256.2 15.4 252 14.7
2004-05-18 07:11:58 51°9.645 2°36.822 256.2 15.4 252 14.7
2004-05-18 07:12:06 51°9.635 2°36.77 256.2 15.4 252 14.6
2004-05-18 07:12:12 51°9.627 2°36.731 256.3 15.4 253 14.5
2004-05-18 07:12:15 51°9.623 2°36.712 256.7 15.4 252 15
2004-05-18 07:12:21 51°9.615 2°36.673 256.8 15.4 253 14.7
2004-05-18 07:12:25 51°9.61 2°36.647 256.8 15.4 252 14.9
2004-05-18 07:12:31 51°9.602 2°36.608 256.6 15.5 252 14.7
2004-05-18 07:12:36 51°9.596 2°36.575 256.4 15.4 252 15.3
2004-05-18 07:12:42 51°9.587 2°36.537 256.3 15.4 252 14.8
2004-05-18 07:12:46 51°9.582 2°36.511 256.1 15.5 252 14.9
2004-05-18 07:12:52 51°9.574 2°36.472 256 15.5 252 15.1
2004-05-18 07:12:54 51°9.571 2°36.459 256 15.4 252 14.9
2004-05-18 07:13:02 51°9.561 2°36.408 256 15.3 252 15.4
2004-05-18 07:13:06 51°9.556 2°36.384 256 14.2 252 14.8
2004-05-18 07:13:11 51°9.55 2°36.355 256.2 13.9 252 15.3
2004-05-18 07:13:16 51°9.544 2°36.329 256.3 12.6 252 15.3
2004-05-18 07:13:20 51°9.54 2°36.308 256.5 12 252 15.4
2004-05-18 07:13:26 51°9.534 2°36.28 256.8 11.2 252 15.1
2004-05-18 07:13:32 51°9.529 2°36.252 257.2 10.8 252 15
2004-05-18 07:13:35 51°9.526 2°36.24 257.8 10.2 253 15.4
2004-05-18 07:13:41 51°9.522 2°36.215 258.4 9.8 253 14.9
2004-05-18 07:13:46 51°9.518 2°36.195 259.1 9.4 254 15.4
2004-05-18 07:13:52 51°9.514 2°36.171 259.8 9.2 254 15
2004-05-18 07:13:56 51°9.511 2°36.157 260.2 8.6 255 15.6
2004-05-18 07:14:01 51°9.508 2°36.138 260.6 8.4 254 15
2004-05-18 07:14:06 51°9.505 2°36.121 261.1 8.2 255 15.5
2004-05-18 07:14:12 51°9.502 2°36.101 261.5 7.8 254 15.5
2004-05-18 07:14:16 51°9.499 2°36.089 262 7.6 255 15.4
2004-05-18 07:14:21 51°9.497 2°36.073 262.3 7.4 255 15.7
2004-05-18 07:14:26 51°9.494 2°36.057 262.6 7.2 255 15.3
2004-05-18 07:14:31 51°9.492 2°36.043 262.7 7 255 15.1
2004-05-18 07:14:36 51°9.489 2°36.028 262.8 6.7 255 15.3
2004-05-18 07:14:41 51°9.487 2°36.014 262.9 6.6 255 15.6
2004-05-18 07:14:46 51°9.485 2°36 263.1 6.5 255 15.6
2004-05-18 07:14:50 51°9.483 2°35.99 263.1 6.3 255 15.7
2004-05-18 07:14:56 51°9.48 2°35.974 263 6.1 254 15.4
2004-05-18 07:15:01 51°9.478 2°35.961 262.7 6 254 15
2004-05-18 07:15:06 51°9.476 2°35.949 262.2 5.9 254 15.8
2004-05-18 07:15:12 51°9.473 2°35.935 261.7 5.7 253 15.4
2004-05-18 07:15:16 51°9.471 2°35.925 260.6 5.6 252 15.1
2004-05-18 07:15:21 51°9.469 2°35.914 259.9 5.4 252 15.8
2004-05-18 07:15:26 51°9.466 2°35.904 259 4.9 252 15.3
2004-05-18 07:15:31 51°9.464 2°35.894 257.8 4.5 251 15.6
2004-05-18 07:15:36 51°9.463 2°35.887 257.9 3.6 250 15.5
2004-05-18 07:15:39 51°9.462 2°35.883 261.2 3.4 252 15.7
2004-05-18 07:15:45 51°9.46 2°35.874 264.5 3.3 252 15.3
2004-05-18 07:15:52 51°9.458 2°35.865 267.7 3.3 254 15.8
2004-05-18 07:15:54 51°9.458 2°35.862 270 3.2 254 15.3
2004-05-18 07:16:01 51°9.456 2°35.853 272.1 3.2 255 15.6
2004-05-18 07:16:06 51°9.455 2°35.846 273.3 3.1 254 15.6
2004-05-18 07:16:11 51°9.454 2°35.839 274.7 3.1 256 15.7
2004-05-18 07:16:16 51°9.453 2°35.833 275.8 3.1 256 15.6
2004-05-18 07:16:22 51°9.452 2°35.825 276.8 3 257 15.5
2004-05-18 07:16:25 51°9.451 2°35.821 277.9 3 256 16
2004-05-18 07:16:32 51°9.45 2°35.813 278.8 2.9 257 15.4
2004-05-18 07:16:36 51°9.449 2°35.808 279.6 3 257 15.9
2004-05-18 07:16:42 51°9.448 2°35.799 280.3 3.1 261 15.2
2004-05-18 07:16:46 51°9.448 2°35.794 281.1 3.3 260 15.9
2004-05-18 07:16:50 51°9.447 2°35.788 281.8 3.3 262 15.6
2004-05-18 07:16:56 51°9.446 2°35.779 282.4 3.3 262 15.5
2004-05-18 07:17:01 51°9.446 2°35.772 283.2 3.3 264 16.1
2004-05-18 07:17:05 51°9.445 2°35.766 283.9 3.4 263 15.5
2004-05-18 07:17:12 51°9.445 2°35.756 284.5 3.4 265 16
2004-05-18 07:17:16 51°9.444 2°35.75 285.2 3.4 265 15.4
2004-05-18 07:17:22 51°9.444 2°35.741 285.9 3.4 266 16
2004-05-18 07:17:26 51°9.444 2°35.735 286.5 3.4 265 15.7
2004-05-18 07:17:31 51°9.444 2°35.727 287.3 3.5 267 15.8
2004-05-18 07:17:36 51°9.443 2°35.72 287.9 3.5 267 16.2
2004-05-18 07:17:39 51°9.443 2°35.715 288.5 3.5 267 15.7
2004-05-18 07:17:45 51°9.443 2°35.706 288.9 3.5 267 16.2
2004-05-18 07:17:52 51°9.443 2°35.695 289.4 3.5 268 15.8
2004-05-18 07:17:54 51°9.443 2°35.692 289.7 3.5 269 15.5
2004-05-18 07:18:01 51°9.443 2°35.681 290.3 3.5 269 16
2004-05-18 07:18:06 51°9.442 2°35.673 290.8 3.6 269 15.5
2004-05-18 07:18:12 51°9.442 2°35.664 291.3 3.6 269 16.2
2004-05-18 07:18:16 51°9.442 2°35.658 291.9 3.6 270 15.5
2004-05-18 07:18:22 51°9.442 2°35.648 292.4 3.6 270 16
2004-05-18 07:18:24 51°9.442 2°35.645 293 3.6 270 15.7
2004-05-18 07:18:32 51°9.443 2°35.632 293.5 3.6 271 16
2004-05-18 07:18:36 51°9.443 2°35.626 294.2 3.6 272 15.7
2004-05-18 07:18:41 51°9.443 2°35.618 294.6 3.5 272 16.1
2004-05-18 07:18:46 51°9.443 2°35.611 295.3 3.5 272 15.6
2004-05-18 07:18:52 51°9.443 2°35.601 295.8 3.5 273 16
2004-05-18 07:18:56 51°9.443 2°35.595 296.5 3.5 273 16.4
2004-05-18 07:19:02 51°9.444 2°35.586 297.1 3.5 273 15.8
2004-05-18 07:19:06 51°9.444 2°35.58 297.7 3.5 273 16.3
2004-05-18 07:19:11 51°9.444 2°35.573 298.2 3.4 274 15.9
2004-05-18 07:19:16 51°9.445 2°35.565 298.6 3.4 274 16
2004-05-18 07:19:21 51°9.445 2°35.558 298.9 3.4 274 16.5
2004-05-18 07:19:26 51°9.445 2°35.55 299.1 3.4 273 15.8
2004-05-18 07:19:32 51°9.446 2°35.541 299.4 3.4 274 16.4
2004-05-18 07:19:37 51°9.446 2°35.534 299.6 3.4 274 15.7
2004-05-18 07:19:41 51°9.446 2°35.528 299.7 3.4 274 16.2
2004-05-18 07:19:46 51°9.447 2°35.52 299.9 3.4 274 16.5
2004-05-18 07:19:52 51°9.447 2°35.511 300.2 3.4 274 15.7
2004-05-18 07:19:56 51°9.447 2°35.505 300.4 3.4 274 16.3
2004-05-18 07:20:02 51°9.448 2°35.496 300.6 3.4 275 16.6
2004-05-18 07:20:06 51°9.448 2°35.491 301 3.4 275 15.6
2004-05-18 07:20:12 51°9.448 2°35.482 301.2 3.4 275 16.3
2004-05-18 07:20:15 51°9.449 2°35.477 301.5 3.3 275 16.3
2004-05-18 07:20:21 51°9.449 2°35.469 301.8 3.3 275 15.9
2004-05-18 07:20:26 51°9.45 2°35.461 302 3.3 275 16.5
2004-05-18 07:20:32 51°9.45 2°35.453 302.5 3.3 275 16.1
2004-05-18 07:20:36 51°9.45 2°35.447 302.7 3.3 276 16.1
2004-05-18 07:20:41 51°9.451 2°35.439 303.1 3.3 276 16.7
2004-05-18 07:20:46 51°9.452 2°35.432 303.4 3.3 276 16.3
2004-05-18 07:20:52 51°9.452 2°35.424 303.9 3.3 277 15.9
2004-05-18 07:20:56 51°9.453 2°35.418 304.3 3.3 277 16.4
2004-05-18 07:21:01 51°9.453 2°35.411 304.6 3.3 276 16.4
2004-05-18 07:21:06 51°9.454 2°35.404 304.8 3.3 276 16.1
2004-05-18 07:21:12 51°9.454 2°35.395 305 3.3 277 16.3
2004-05-18 07:21:16 51°9.455 2°35.39 305 3.2 277 16.2
2004-05-18 07:21:22 51°9.455 2°35.381 305.1 3.2 277 16.1
2004-05-18 07:21:26 51°9.456 2°35.376 305.1 3.3 276 16.3
2004-05-18 07:21:32 51°9.456 2°35.367 305.2 3.2 277 16.2
2004-05-18 07:21:36 51°9.457 2°35.361 305.4 3.2 277 16.2
2004-05-18 07:21:41 51°9.457 2°35.354 305.6 3.2 277 16.3
2004-05-18 07:21:46 51°9.458 2°35.347 305.8 3.2 277 16.1
2004-05-18 07:21:52 51°9.458 2°35.339 306.1 3.2 277 16.4
2004-05-18 07:21:55 51°9.459 2°35.335 306.4 3.2 277 16.7
2004-05-18 07:22:01 51°9.459 2°35.326 306.7 3.2 278 16.2
2004-05-18 07:22:06 51°9.46 2°35.319 307 3.2 277 16.5
2004-05-18 07:22:12 51°9.461 2°35.311 307.3 3.2 278 16.7
2004-05-18 07:22:16 51°9.461 2°35.306 307.5 3.2 278 16.6
2004-05-18 07:22:21 51°9.462 2°35.299 307.7 3.2 278 16.6
2004-05-18 07:22:26 51°9.463 2°35.292 307.8 3.2 278 16.6
2004-05-18 07:22:32 51°9.463 2°35.283 307.8 3.2 278 16.8
2004-05-18 07:22:36 51°9.464 2°35.278 307.8 3.2 277 16.8
2004-05-18 07:22:41 51°9.464 2°35.271 307.8 3.2 278 16.7
2004-05-18 07:22:46 51°9.465 2°35.264 307.7 3.2 277 16.9
2004-05-18 07:22:52 51°9.465 2°35.256 307.7 3.2 277 16.9
2004-05-18 07:22:56 51°9.466 2°35.25 307.7 3.2 277 17
2004-05-18 07:23:01 51°9.467 2°35.243 307.7 3.2 277 17
2004-05-18 07:23:06 51°9.467 2°35.236 307.7 3.2 277 17.2
2004-05-18 07:23:12 51°9.468 2°35.228 307.7 3.2 276 17.2
2004-05-18 07:23:15 51°9.468 2°35.223 307.7 3.2 276 17.2
2004-05-18 07:23:22 51°9.469 2°35.214 307.9 3.2 277 17.3
2004-05-18 07:23:26 51°9.469 2°35.208 308 3.2 276 17.3
2004-05-18 07:23:32 51°9.47 2°35.2 308.1 3.2 276 17.3
2004-05-18 07:23:37 51°9.47 2°35.193 308.2 3.2 277 17.3
2004-05-18 07:23:41 51°9.471 2°35.187 308.3 3.2 277 17.3
2004-05-18 07:23:46 51°9.471 2°35.181 308.4 3.2 277 17.4
2004-05-18 07:23:52 51°9.472 2°35.172 308.6 3.2 277 17.4
2004-05-18 07:23:56 51°9.472 2°35.167 308.7 3.2 277 17.3
2004-05-18 07:24:02 51°9.473 2°35.159 308.9 3.2 278 16.5
2004-05-18 07:24:06 51°9.474 2°35.153 309.1 3.2 277 16.7
2004-05-18 07:24:12 51°9.474 2°35.145 309.1 3.2 277 17.1
2004-05-18 07:24:16 51°9.475 2°35.139 309.3 3.2 278 16.5
2004-05-18 07:24:21 51°9.475 2°35.132 309.6 3.2 278 16.6
2004-05-18 07:24:26 51°9.476 2°35.125 309.7 3.2 278 16.8
2004-05-18 07:24:32 51°9.477 2°35.117 309.9 3.2 278 16.9
2004-05-18 07:24:35 51°9.477 2°35.112 310 3.2 278 16.9
2004-05-18 07:24:42 51°9.478 2°35.103 310.2 3.2 278 16.9
2004-05-18 07:24:46 51°9.478 2°35.097 310.3 3.2 278 17
2004-05-18 07:24:52 51°9.479 2°35.089 310.6 3.2 279 16.9
2004-05-18 07:24:56 51°9.48 2°35.083 310.6 3.2 279 17.1
2004-05-18 07:25:01 51°9.48 2°35.076 310.8 3.2 279 17.2
2004-05-18 07:25:06 51°9.481 2°35.07 311.2 3.2 279 17.2
2004-05-18 07:25:12 51°9.482 2°35.061 311.4 3.2 278 17.1
2004-05-18 07:25:16 51°9.482 2°35.055 311.8 3.2 279 17.2
2004-05-18 07:25:22 51°9.483 2°35.047 312.3 3.2 279 17.2
2004-05-18 07:25:26 51°9.484 2°35.042 312.8 3.2 279 17.2
2004-05-18 07:25:32 51°9.485 2°35.034 313.1 3.1 280 17.3
2004-05-18 07:25:35 51°9.485 2°35.029 313.5 3.2 280 17.3
2004-05-18 07:25:42 51°9.486 2°35.02 314 3.1 280 17.3
2004-05-18 07:25:46 51°9.487 2°35.014 314.4 3.2 280 17.3
2004-05-18 07:25:52 51°9.488 2°35.006 315 3.1 280 17.4
2004-05-18 07:25:57 51°9.489 2°34.999 315.6 3.1 281 17.5
2004-05-18 07:26:02 51°9.489 2°34.993 316.3 3.1 281 17.6
2004-05-18 07:26:06 51°9.49 2°34.987 317 3.1 282 17.7
2004-05-18 07:26:10 51°9.491 2°34.982 317.7 3.1 282 17.7
2004-05-18 07:26:16 51°9.492 2°34.974 318.4 3.1 282 17.7
2004-05-18 07:26:22 51°9.493 2°34.966 319.1 3.1 282 17.7
2004-05-18 07:26:26 51°9.494 2°34.961 319.8 3.1 283 17.8
2004-05-18 07:26:32 51°9.495 2°34.953 320.6 3 283 17.8
2004-05-18 07:26:37 51°9.496 2°34.946 321.3 3 284 17.7
2004-05-18 07:26:41 51°9.497 2°34.941 322 3 284 17.7
2004-05-18 07:26:46 51°9.498 2°34.935 322.9 3 284 17.8
2004-05-18 07:26:52 51°9.499 2°34.927 323.7 3 285 17.8
2004-05-18 07:26:57 51°9.5 2°34.921 324.5 3 285 17.9
2004-05-18 07:27:00 51°9.501 2°34.917 325.2 2.9 285 17.9
2004-05-18 07:27:06 51°9.502 2°34.91 325.8 2.9 286 18
2004-05-18 07:27:12 51°9.503 2°34.902 326.5 2.9 286 18.1
2004-05-18 07:27:16 51°9.504 2°34.898 327.1 2.9 286 18.1
2004-05-18 07:27:21 51°9.505 2°34.892 327.5 2.9 286 18.1
2004-05-18 07:27:25 51°9.506 2°34.887 328.1 2.9 287 18.1
2004-05-18 07:27:32 51°9.508 2°34.878 328.7 2.9 287 18.1
2004-05-18 07:27:36 51°9.509 2°34.874 329.5 2.8 288 18.2
2004-05-18 07:27:42 51°9.51 2°34.866 330.2 2.8 288 18.2
2004-05-18 07:27:46 51°9.511 2°34.862 330.7 2.8 288 18.3
2004-05-18 07:27:52 51°9.512 2°34.854 331.5 2.8 289 18.3
2004-05-18 07:27:56 51°9.513 2°34.85 332 2.8 289 18.4
2004-05-18 07:28:02 51°9.515 2°34.843 332.8 2.8 290 18.4
2004-05-18 07:28:06 51°9.516 2°34.838 333.7 2.7 290 18.5
2004-05-18 07:28:12 51°9.518 2°34.832 334.4 2.7 290 18.5
2004-05-18 07:28:16 51°9.519 2°34.827 335.1 2.7 290 18.5
2004-05-18 07:28:21 51°9.52 2°34.821 335.8 2.7 291 18.4
2004-05-18 07:28:24 51°9.521 2°34.818 336.5 2.7 291 18.6
2004-05-18 07:28:32 51°9.523 2°34.809 337.2 2.7 291 18.7
2004-05-18 07:28:34 51°9.523 2°34.807 337.6 2.7 291 18.7
2004-05-18 07:28:41 51°9.525 2°34.8 338.3 2.6 292 18.6
2004-05-18 07:28:46 51°9.526 2°34.794 338.9 2.6 292 18.6
2004-05-18 07:28:52 51°9.528 2°34.788 339.4 2.6 292 18.5
2004-05-18 07:28:56 51°9.529 2°34.784 340 2.6 293 18.6
2004-05-18 07:28:58 51°9.53 2°34.782 340.8 2.6 294 18.6
2004-05-18 07:29:06 51°9.532 2°34.774 341.7 2.5 295 18.5
2004-05-18 07:29:11 51°9.534 2°34.769 342.6 2.5 295 18.5
2004-05-18 07:29:16 51°9.535 2°34.764 343.8 2.4 297 18.6
2004-05-18 07:29:21 51°9.537 2°34.759 345 2.4 298 18.5
2004-05-18 07:29:26 51°9.538 2°34.755 346.5 2.3 299 18.5
2004-05-18 07:29:32 51°9.54 2°34.75 348.1 2.3 300 18.6
2004-05-18 07:29:35 51°9.541 2°34.747 349.8 2.2 302 18.6
2004-05-18 07:29:42 51°9.543 2°34.742 351.6 2.1 303 18.6
2004-05-18 07:29:46 51°9.545 2°34.739 353 2.1 305 18.6
2004-05-18 07:29:52 51°9.547 2°34.734 354.5 2.1 305 18.5
2004-05-18 07:29:56 51°9.548 2°34.731 356 2 307 18.6
2004-05-18 07:30:01 51°9.55 2°34.728 357.5 1.9 309 18.6
2004-05-18 07:30:06 51°9.552 2°34.725 358.8 1.9 310 18.6
2004-05-18 07:30:12 51°9.554 2°34.721 0.2 1.9 311 18.6
2004-05-18 07:30:16 51°9.555 2°34.719 1.4 1.8 312 18.5
2004-05-18 07:30:22 51°9.557 2°34.715 2.7 1.8 313 18.4
2004-05-18 07:30:26 51°9.558 2°34.713 3.7 1.8 314 18.4
2004-05-18 07:30:32 51°9.561 2°34.71 4.6 1.8 314 18.4
2004-05-18 07:30:36 51°9.562 2°34.707 5.6 1.7 315 18.4
2004-05-18 07:30:41 51°9.564 2°34.705 6.5 1.7 316 18.3
2004-05-18 07:30:46 51°9.565 2°34.702 7.3 1.7 316 18.3
2004-05-18 07:30:52 51°9.567 2°34.699 7.9 1.7 318 18.3
2004-05-18 07:30:55 51°9.568 2°34.698 8.9 1.6 319 18.2
2004-05-18 07:31:02 51°9.571 2°34.695 9.7 1.7 320 18.2
2004-05-18 07:31:06 51°9.572 2°34.693 10.6 1.6 321 18.2
2004-05-18 07:31:12 51°9.574 2°34.69 11.5 1.6 321 18.1
2004-05-18 07:31:16 51°9.576 2°34.689 12.2 1.6 323 18.2
2004-05-18 07:31:21 51°9.578 2°34.687 13 1.6 324 18.1
2004-05-18 07:31:26 51°9.579 2°34.685 13.8 1.6 326 18.1
2004-05-18 07:31:31 51°9.581 2°34.683 14.8 1.6 326 18
2004-05-18 07:31:36 51°9.583 2°34.681 15.6 1.6 329 18
2004-05-18 07:31:42 51°9.585 2°34.679 16.5 1.6 329 17.9
2004-05-18 07:31:46 51°9.587 2°34.677 17.3 1.5 330 17.9
2004-05-18 07:31:52 51°9.589 2°34.676 18.1 1.6 331 17.8
2004-05-18 07:31:56 51°9.591 2°34.674 19.1 1.5 332 17.8
2004-05-18 07:32:01 51°9.592 2°34.673 19.8 1.5 332 17.7
2004-05-18 07:32:04 51°9.593 2°34.672 20.8 1.4 333 17.7
2004-05-18 07:32:12 51°9.596 2°34.67 21.6 1.4 331 17.6
2004-05-18 07:32:16 51°9.597 2°34.669 22.3 1.3 332 17.6
2004-05-18 07:32:21 51°9.599 2°34.667 23.1 1.3 332 17.6
2004-05-18 07:32:26 51°9.6 2°34.666 23.9 1.3 332 17.5
2004-05-18 07:32:30 51°9.602 2°34.665 24.6 1.2 331 17.5
2004-05-18 07:32:36 51°9.603 2°34.664 25.4 1.2 331 17.5
2004-05-18 07:32:38 51°9.604 2°34.663 26.1 1.1 332 17.4
2004-05-18 07:32:45 51°9.606 2°34.661 26.9 1.1 331 17.4
2004-05-18 07:32:52 51°9.608 2°34.66 27.6 1.1 331 17.3
2004-05-18 07:32:56 51°9.609 2°34.659 28.3 1 331 17.3
2004-05-18 07:33:01 51°9.61 2°34.658 29 1 330 17.2
2004-05-18 07:33:06 51°9.611 2°34.657 29.7 1 330 17.1
2004-05-18 07:33:12 51°9.613 2°34.656 30.5 1 330 17.2
2004-05-18 07:33:15 51°9.613 2°34.655 31.3 0.9 330 17.1
2004-05-18 07:33:22 51°9.615 2°34.653 32.2 0.9 330 17.1
2004-05-18 07:33:26 51°9.615 2°34.653 32.9 0.9 329 17.1
2004-05-18 07:33:32 51°9.617 2°34.652 33.3 0.8 327 17.2
2004-05-18 07:33:36 51°9.617 2°34.651 33.8 0.8 327 17.1
2004-05-18 07:33:41 51°9.618 2°34.65 34.1 0.8 325 17.1
2004-05-18 07:33:46 51°9.619 2°34.649 34.4 0.8 324 17.1
2004-05-18 07:33:51 51°9.62 2°34.648 34.8 0.8 323 17.1
2004-05-18 07:33:56 51°9.621 2°34.647 34.8 0.8 333 17.1
2004-05-18 07:34:02 51°9.623 2°34.646 35.1 0.9 340 17
2004-05-18 07:34:04 51°9.623 2°34.646 35.1 1.1 352 17
2004-05-18 07:34:12 51°9.626 2°34.646 35.1 1.3 358 17
2004-05-18 07:34:14 51°9.627 2°34.646 35.1 2 11 16.9
2004-05-18 07:34:22 51°9.632 2°34.648 35.2 2.6 16 17
2004-05-18 07:34:26 51°9.636 2°34.65 35.2 3.3 18 17
2004-05-18 07:34:32 51°9.642 2°34.654 34.8 3.8 20 16.8
2004-05-18 07:34:36 51°9.647 2°34.657 34.7 4.8 21 16.7
2004-05-18 07:34:41 51°9.654 2°34.661 34.2 5.6 22 16.5
2004-05-18 07:34:45 51°9.661 2°34.666 34.1 6.4 23 16.5
2004-05-18 07:34:51 51°9.673 2°34.674 34.1 7.9 24 16.4
2004-05-18 07:34:56 51°9.684 2°34.683 33.9 9.1 25 16
2004-05-18 07:35:01 51°9.696 2°34.692 33.8 9.8 26 16.1
2004-05-18 07:35:06 51°9.709 2°34.702 34.1 10.6 27 15.8
2004-05-18 07:35:12 51°9.726 2°34.716 35 11 28 15.7
2004-05-18 07:35:21 51°9.751 2°34.738 35.7 11.9 28 14.4
2004-05-18 07:35:28 51°9.772 2°34.756 35.9 12 29 14.1
2004-05-18 07:35:32 51°9.784 2°34.766 36 12.2 29 13.6
2004-05-18 07:35:37 51°9.799 2°34.779 36.1 12.3 28 13.2
2004-05-18 07:35:42 51°9.814 2°34.792 35.6 12.4 28 12.8
2004-05-18 07:35:48 51°9.832 2°34.807 34.9 12.5 27 12.4
2004-05-18 07:35:52 51°9.845 2°34.817 34.5 12.5 27 12.6